Aeroporto :
LOGIN :

Iscrizione | Disclaimer

   EN    FR    IT 

 










Sommario :    VFR   VFR Marginale   IFR   IFR Intensivo   IFR Molto Intensivo
Visibilità : 
Base nubi : 
>= 8 km
>= 3000ft
5 / 8 km
1000 / 3000 ft
1500m / 5 km
500 / 1000 ft
800 / 1500m
200 / 500 ft
< 800m
< 200 ft
Simboli :   Temporali  Nebbia  Neve Forte  Precipitazioni Forti  Vento > 20 kt
SIGMETs :   Varie  Temporali  Ghiacco  Turbolenza  Onda orograficha  Ceneri Vulcaniche







- Altitudine del aeroporto : 17 ft
- Codice IATA : GRQ


EHGG - Groningen Eelde

ULTIMO METAR :
  • 191525Z AUTO 25006KT 220V280 9999 FEW043 11/03 Q1027 NOSIG

METARs OBSOLETI :
  • 191455Z AUTO 25007KT 220V290 9999 SCT042 11/02 Q1027 NOSIG
  • 191425Z AUTO 27006KT 220V350 9999 NCD 11/01 Q1027 NOSIG
  • 191355Z AUTO 26006KT 210V320 9999 FEW040 11/02 Q1027 NOSIG
  • 191325Z AUTO VRB05KT 9999 FEW040 10/01 Q1027 NOSIG
  • 191255Z AUTO 25004KT 200V320 9999 NCD 10/00 Q1028 NOSIG

TAF TAF EHGG
Valido dal 19 a 12 ore il 20 a 18 ore UTC


191108Z 1912/2018 27006KT 9999 SCT035
BECMG 2003/2006 4000 BR BKN008
PROB30
TEMPO 2004/2009 2000 -DZ BKN004
BECMG 2009/2012 24011KT 9999 NSW BKN020
PROB30
TEMPO 2009/2018 6000 -RADZ BKN014
Nessun NOTAM noto per questo aeroporto.



MetMap, La meteo Aeronautica in un colpo d'occhio ! - Copyright ORBIFLY Dicembre 2007 - Disclaimer

ORBIFLY MET'MAP TEAM :

Programmazione e sviluppo : Alexandra Zaïnal
Concezione e sviluppo : Baudouin d'Aumeries
Co-Programmazione e sviluppo : Marc-Olivier Méhu
Supporto tecnico e logistico : Manuel Goepfert
Aiuto per la traduzione : Arnaldo La Scala

Contatto : metmap@orbifly.com




FONTI E CREDITI :

   NOAA